Time;durP1;ratioP1;P1;durP2;ratioP2;P2;SDS_P1;SDS_P2;PMS_P1;PMS_P2;Temp;Humidity;BMP_temperature;BMP_pressure;BME280_temperature;BME280_humidity;BME280_pressure;Samples;Min_cycle;Max_cycle;Signal;HPM_P1;HPM_P2
2023/09/09 00:01:27;;;;;;;7.60;6.10;;;22.70;99.90;;;;;;4873096;29;20080;-58
2023/09/09 00:03:54;;;;;;;10.13;6.35;;;22.60;99.90;;;;;;4891407;29;20061;-58
2023/09/09 00:06:21;;;;;;;12.00;7.25;;;22.70;99.90;;;;;;4886393;29;20045;-59
2023/09/09 00:08:47;;;;;;;8.25;6.15;;;22.70;99.90;;;;;;4889566;29;20052;-58
2023/09/09 00:11:14;;;;;;;8.23;6.55;;;22.70;99.90;;;;;;4890587;29;20517;-59
2023/09/09 00:13:41;;;;;;;13.50;7.32;;;22.70;99.90;;;;;;4876160;29;20045;-59
2023/09/09 00:16:08;;;;;;;11.23;6.93;;;22.70;99.90;;;;;;4888794;29;20533;-59
2023/09/09 00:18:35;;;;;;;12.15;6.53;;;22.60;99.90;;;;;;4891514;29;20639;-58
2023/09/09 00:21:03;;;;;;;13.77;7.13;;;22.60;99.90;;;;;;4870267;29;20128;-58
2023/09/09 00:23:29;;;;;;;7.82;6.05;;;22.60;99.90;;;;;;4885157;29;20056;-59
2023/09/09 00:25:56;;;;;;;9.68;6.28;;;22.50;99.90;;;;;;4891369;29;20481;-58
2023/09/09 00:28:23;;;;;;;10.27;6.35;;;22.40;99.90;;;;;;4901691;29;20100;-63
2023/09/09 00:30:50;;;;;;;8.02;6.22;;;22.30;99.90;;;;;;4905625;29;20044;-58
2023/09/09 00:33:17;;;;;;;9.00;7.30;;;22.30;99.90;;;;;;4905445;29;20052;-58
2023/09/09 00:35:44;;;;;;;8.32;7.00;;;22.30;99.90;;;;;;4894914;29;20496;-58
2023/09/09 00:38:11;;;;;;;8.68;6.30;;;22.40;99.90;;;;;;4909114;29;20491;-59
2023/09/09 00:40:41;;;;;;;10.30;7.18;;;22.40;99.90;;;;;;4910106;29;20055;-58
2023/09/09 00:43:08;;;;;;;12.95;7.72;;;22.40;99.90;;;;;;4906304;29;20056;-58
2023/09/09 00:45:35;;;;;;;12.57;7.40;;;22.40;99.90;;;;;;4905036;29;20048;-58
2023/09/09 00:48:02;;;;;;;13.02;6.70;;;22.40;99.90;;;;;;4880923;29;20080;-59
2023/09/09 00:50:29;;;;;;;17.33;7.13;;;22.40;99.90;;;;;;4895445;29;20456;-59
2023/09/09 00:52:55;;;;;;;9.25;7.35;;;22.40;99.90;;;;;;4898338;29;20108;-58
2023/09/09 00:55:27;;;;;;;9.45;6.72;;;22.40;99.90;;;;;;4912442;29;20048;-58
2023/09/09 00:57:54;;;;;;;8.88;7.10;;;22.40;99.90;;;;;;4890160;29;20088;-59
2023/09/09 01:00:21;;;;;;;10.00;6.13;;;22.40;99.90;;;;;;4910074;29;20040;-58
2023/09/09 01:02:47;;;;;;;7.10;6.30;;;22.30;99.90;;;;;;4905749;29;20059;-58
2023/09/09 01:05:15;;;;;;;10.40;7.32;;;22.20;99.90;;;;;;4888023;29;20051;-58
2023/09/09 01:07:43;;;;;;;11.65;6.75;;;22.10;99.90;;;;;;4898436;29;20055;-58
2023/09/09 01:10:11;;;;;;;12.95;6.45;;;22.00;99.90;;;;;;4909169;29;20512;-59
2023/09/09 01:12:37;;;;;;;12.27;6.22;;;22.00;99.90;;;;;;4910828;29;20052;-59
2023/09/09 01:15:07;;;;;;;9.52;6.68;;;22.00;99.90;;;;;;4907977;29;20071;-58
2023/09/09 01:17:35;;;;;;;9.23;6.20;;;22.00;99.90;;;;;;4891826;29;20067;-59
2023/09/09 01:20:13;;;;;;;8.68;6.43;;;22.10;99.90;;;;;;4896612;29;20048;-59
2023/09/09 01:22:40;;;;;;;12.35;6.13;;;22.10;99.90;;;;;;4904211;29;20052;-59
2023/09/09 01:25:07;;;;;;;9.48;6.82;;;22.10;99.90;;;;;;4900392;29;20045;-64
2023/09/09 01:27:34;;;;;;;13.65;7.10;;;22.10;99.90;;;;;;4910774;29;20052;-60
2023/09/09 01:30:01;;;;;;;10.40;7.07;;;22.10;99.90;;;;;;4900097;29;20048;-60
2023/09/09 01:32:27;;;;;;;11.05;6.57;;;22.10;99.90;;;;;;4908899;29;20059;-60
2023/09/09 01:34:55;;;;;;;10.27;5.90;;;22.10;99.90;;;;;;4902364;29;20056;-58
2023/09/09 01:37:22;;;;;;;11.02;6.47;;;22.00;99.90;;;;;;4910975;29;20056;-60
2023/09/09 01:39:49;;;;;;;7.90;5.57;;;21.90;99.90;;;;;;4898602;29;20522;-59
2023/09/09 01:42:16;;;;;;;9.95;5.90;;;21.90;99.90;;;;;;4567148;29;10000307;-59
2023/09/09 01:44:46;;;;;;;7.40;5.47;;;21.80;99.90;;;;;;4906804;29;20096;-59
2023/09/09 01:47:15;;;;;;;8.82;5.90;;;21.80;99.90;;;;;;4894499;29;20123;-59
2023/09/09 01:49:42;;;;;;;12.40;5.90;;;21.80;99.90;;;;;;4896972;29;20045;-59
2023/09/09 01:52:09;;;;;;;9.30;6.03;;;21.80;99.90;;;;;;4911734;29;20076;-61
2023/09/09 01:54:36;;;;;;;9.00;4.97;;;21.80;99.90;;;;;;4905940;29;20044;-58
2023/09/09 01:57:02;;;;;;;11.00;6.38;;;21.80;99.90;;;;;;4892449;29;20056;-58
2023/09/09 01:59:29;;;;;;;15.27;6.25;;;21.80;99.90;;;;;;4906806;29;20048;-58
2023/09/09 02:01:56;;;;;;;7.68;5.03;;;21.80;99.90;;;;;;4906981;29;20049;-59
2023/09/09 02:04:23;;;;;;;5.30;4.40;;;21.80;99.90;;;;;;4890479;29;20415;-58
2023/09/09 02:06:50;;;;;;;8.13;5.65;;;21.70;99.90;;;;;;4908021;29;20048;-58
2023/09/09 02:09:16;;;;;;;7.13;5.30;;;21.70;99.90;;;;;;4907372;29;20048;-58
2023/09/09 02:11:43;;;;;;;9.02;6.03;;;21.70;99.90;;;;;;4889875;29;20048;-58
2023/09/09 02:14:10;;;;;;;9.57;5.85;;;21.60;99.90;;;;;;4899817;29;20052;-59
2023/09/09 02:16:36;;;;;;;8.38;5.72;;;21.60;99.90;;;;;;4910506;29;20048;-59
2023/09/09 02:19:03;;;;;;;6.15;5.43;;;21.60;99.90;;;;;;4900712;29;20052;-57
2023/09/09 02:21:30;;;;;;;8.93;6.22;;;21.60;99.90;;;;;;4907011;29;20165;-59
2023/09/09 02:23:57;;;;;;;7.07;4.88;;;21.50;99.90;;;;;;4909549;29;20090;-58
2023/09/09 02:26:24;;;;;;;8.82;6.65;;;21.50;99.90;;;;;;4905395;29;20044;-59
2023/09/09 02:28:51;;;;;;;8.70;5.25;;;21.50;99.90;;;;;;4901918;29;20049;-59
2023/09/09 02:31:17;;;;;;;8.30;5.47;;;21.50;99.90;;;;;;4897386;29;20124;-59
2023/09/09 02:33:44;;;;;;;8.10;6.13;;;21.50;99.90;;;;;;4907037;29;20053;-59
2023/09/09 02:36:11;;;;;;;7.70;4.82;;;21.40;99.90;;;;;;4897097;29;20129;-59
2023/09/09 02:38:38;;;;;;;11.18;5.95;;;21.40;99.90;;;;;;4911384;29;20464;-59
2023/09/09 02:41:05;;;;;;;7.93;5.13;;;21.40;99.90;;;;;;4907657;29;20059;-58
2023/09/09 02:43:31;;;;;;;8.38;5.72;;;21.40;99.90;;;;;;4909008;29;20040;-57
2023/09/09 02:45:58;;;;;;;11.18;5.32;;;21.40;99.90;;;;;;4906941;29;20056;-59
2023/09/09 02:48:25;;;;;;;8.40;5.57;;;21.40;99.90;;;;;;4899363;29;20139;-59
2023/09/09 02:50:52;;;;;;;7.75;5.70;;;21.40;99.90;;;;;;4908111;29;20045;-59
2023/09/09 02:53:18;;;;;;;7.78;5.53;;;21.30;99.90;;;;;;4908691;29;20056;-59
2023/09/09 02:55:45;;;;;;;7.60;5.60;;;21.20;99.90;;;;;;4907161;29;20476;-59
2023/09/09 02:58:13;;;;;;;6.82;5.95;;;21.10;99.90;;;;;;4907290;29;20138;-59
2023/09/09 03:00:40;;;;;;;11.98;6.47;;;21.10;99.90;;;;;;4911656;29;20040;-59
2023/09/09 03:03:07;;;;;;;9.30;6.63;;;21.10;99.90;;;;;;4910755;29;20147;-59
2023/09/09 03:05:35;;;;;;;9.00;6.85;;;21.10;99.90;;;;;;4910165;29;20049;-59
2023/09/09 03:08:03;;;;;;;9.63;6.00;;;21.10;99.90;;;;;;4899963;29;20218;-59
2023/09/09 03:10:30;;;;;;;8.32;6.20;;;21.20;99.90;;;;;;4889889;29;20098;-58
2023/09/09 03:12:57;;;;;;;8.30;5.97;;;21.20;99.90;;;;;;4912898;29;20144;-59
2023/09/09 03:15:24;;;;;;;12.77;6.97;;;21.20;99.90;;;;;;4904375;29;20045;-59
2023/09/09 03:17:51;;;;;;;9.70;6.05;;;21.10;99.90;;;;;;4911161;29;20059;-60
2023/09/09 03:20:18;;;;;;;9.18;7.10;;;21.10;99.90;;;;;;4913579;29;20044;-58
2023/09/09 03:22:45;;;;;;;8.23;5.75;;;21.10;99.90;;;;;;4907733;29;20055;-60
2023/09/09 03:25:11;;;;;;;9.82;6.05;;;21.10;99.90;;;;;;4911269;29;20119;-58
2023/09/09 03:27:38;;;;;;;11.68;5.53;;;21.10;99.90;;;;;;4908347;29;20052;-59
2023/09/09 03:30:06;;;;;;;7.30;5.55;;;21.00;99.90;;;;;;4904633;29;20495;-59
2023/09/09 03:32:32;;;;;;;7.13;5.55;;;20.90;99.90;;;;;;4909342;29;20059;-59
2023/09/09 03:34:59;;;;;;;7.88;6.20;;;20.90;99.90;;;;;;4897870;29;20060;-59
2023/09/09 03:37:26;;;;;;;13.65;6.00;;;20.80;99.90;;;;;;4909646;29;20508;-59
2023/09/09 03:39:53;;;;;;;9.40;6.20;;;20.70;99.90;;;;;;4909122;29;20344;-58
2023/09/09 03:42:20;;;;;;;10.20;6.35;;;20.70;99.90;;;;;;4905708;29;20052;-59
2023/09/09 03:44:46;;;;;;;10.30;6.53;;;20.60;99.90;;;;;;4900390;29;20056;-58
2023/09/09 03:47:13;;;;;;;9.38;6.53;;;20.70;99.90;;;;;;4912662;29;20055;-59
2023/09/09 03:49:40;;;;;;;10.88;6.53;;;20.70;99.90;;;;;;4910426;29;20115;-59
2023/09/09 03:52:07;;;;;;;7.63;6.20;;;20.70;99.90;;;;;;4912983;29;20044;-59
2023/09/09 03:54:34;;;;;;;12.38;6.40;;;20.70;99.90;;;;;;4910329;29;20052;-60
2023/09/09 03:57:01;;;;;;;11.32;6.68;;;20.70;99.90;;;;;;4911921;29;20059;-59
2023/09/09 03:59:31;;;;;;;9.50;6.95;;;20.70;99.90;;;;;;4908554;29;20092;-58
2023/09/09 04:01:58;;;;;;;8.95;6.55;;;20.70;99.90;;;;;;4913156;29;20112;-59
2023/09/09 04:04:25;;;;;;;9.85;6.10;;;20.70;99.90;;;;;;4909849;29;20052;-62
2023/09/09 04:06:52;;;;;;;7.82;6.38;;;20.60;99.90;;;;;;4911081;29;20488;-58
2023/09/09 04:09:26;;;;;;;9.52;6.13;;;20.60;99.90;;;;;;4908342;29;20080;-58
2023/09/09 04:11:53;;;;;;;9.18;6.30;;;20.60;99.90;;;;;;4903374;29;20048;-58
2023/09/09 04:14:20;;;;;;;8.88;7.00;;;20.60;99.90;;;;;;4908362;29;20052;-58
2023/09/09 04:16:46;;;;;;;9.50;6.20;;;20.60;99.90;;;;;;4911399;29;20048;-58
2023/09/09 04:19:14;;;;;;;11.23;5.50;;;20.60;99.90;;;;;;4907900;29;20052;-58
2023/09/09 04:21:41;;;;;;;19.70;6.10;;;20.60;99.90;;;;;;4907363;29;20056;-59
2023/09/09 04:24:08;;;;;;;10.40;6.90;;;20.50;99.90;;;;;;4909048;29;20056;-58
2023/09/09 04:26:35;;;;;;;7.32;5.53;;;20.50;99.90;;;;;;4909059;29;20044;-58
2023/09/09 04:29:03;;;;;;;8.80;6.00;;;20.50;99.90;;;;;;4911398;29;20079;-58
2023/09/09 04:31:30;;;;;;;9.25;6.10;;;20.40;99.90;;;;;;4903722;29;20043;-59
2023/09/09 04:33:57;;;;;;;8.55;6.13;;;20.30;99.90;;;;;;4911864;29;20626;-58
2023/09/09 04:36:24;;;;;;;10.10;5.85;;;20.30;99.90;;;;;;4896226;29;20044;-58
2023/09/09 04:38:50;;;;;;;9.32;6.13;;;20.30;99.90;;;;;;4911013;29;20151;-57
2023/09/09 04:41:17;;;;;;;8.32;5.43;;;20.30;99.90;;;;;;4910735;29;20107;-58
2023/09/09 04:43:44;;;;;;;10.65;5.88;;;20.30;99.90;;;;;;4910853;29;20535;-59
2023/09/09 04:46:11;;;;;;;8.93;5.65;;;20.30;99.90;;;;;;4909129;29;20059;-57
2023/09/09 04:48:38;;;;;;;11.30;6.38;;;20.30;99.90;;;;;;4908132;29;20472;-56
2023/09/09 04:51:05;;;;;;;7.65;5.65;;;20.30;99.90;;;;;;4908670;29;20079;-57
2023/09/09 04:53:32;;;;;;;6.10;5.18;;;20.20;99.90;;;;;;4904604;29;20057;-58
2023/09/09 04:56:00;;;;;;;6.45;5.57;;;20.20;99.90;;;;;;4908143;29;20048;-58
2023/09/09 04:58:28;;;;;;;6.95;5.45;;;20.20;99.90;;;;;;4904161;29;20053;-58
2023/09/09 05:00:55;;;;;;;8.57;5.78;;;20.20;99.90;;;;;;4908511;29;20052;-58
2023/09/09 05:03:22;;;;;;;9.48;6.38;;;20.20;99.90;;;;;;4902234;29;20456;-58
2023/09/09 05:05:49;;;;;;;11.60;5.90;;;20.30;99.90;;;;;;4899473;29;20060;-58
2023/09/09 05:08:16;;;;;;;7.43;5.45;;;20.30;99.90;;;;;;4909584;29;20048;-58
2023/09/09 05:10:44;;;;;;;6.70;5.97;;;20.30;99.90;;;;;;4910689;29;20048;-58
2023/09/09 05:13:10;;;;;;;7.25;4.95;;;20.30;99.90;;;;;;4909713;29;20559;-58
2023/09/09 05:15:38;;;;;;;7.97;5.88;;;20.20;99.90;;;;;;4895653;29;20448;-58
2023/09/09 05:18:04;;;;;;;7.38;5.35;;;20.20;99.90;;;;;;4900237;29;20056;-58
2023/09/09 05:20:31;;;;;;;9.38;5.70;;;20.20;99.90;;;;;;4908498;29;20051;-59
2023/09/09 05:22:58;;;;;;;7.07;5.93;;;20.20;99.90;;;;;;4910739;29;20051;-58
2023/09/09 05:25:25;;;;;;;7.90;6.13;;;20.10;99.90;;;;;;4900883;29;20059;-59
2023/09/09 05:27:52;;;;;;;10.95;6.57;;;20.10;99.90;;;;;;4912001;29;20139;-57
2023/09/09 05:30:19;;;;;;;8.07;5.60;;;20.10;99.90;;;;;;4910833;29;20088;-58
2023/09/09 05:32:46;;;;;;;9.65;5.80;;;20.10;99.90;;;;;;4907320;29;20056;-57
2023/09/09 05:35:12;;;;;;;6.53;5.47;;;20.10;99.90;;;;;;4893997;29;20452;-58
2023/09/09 05:37:40;;;;;;;8.18;5.93;;;20.10;99.90;;;;;;4904910;29;20044;-58
2023/09/09 05:40:08;;;;;;;8.25;6.65;;;20.10;99.90;;;;;;4905784;29;20050;-58
2023/09/09 05:42:35;;;;;;;7.45;5.60;;;20.20;99.90;;;;;;4909268;29;20174;-60
2023/09/09 05:45:05;;;;;;;7.80;6.25;;;20.20;99.90;;;;;;4910872;29;20055;-58
2023/09/09 05:47:32;;;;;;;9.10;5.13;;;20.20;99.90;;;;;;4907149;29;20393;-58
2023/09/09 05:49:59;;;;;;;7.78;5.68;;;20.20;99.90;;;;;;4911298;29;20076;-59
2023/09/09 05:52:25;;;;;;;8.30;5.93;;;20.10;99.90;;;;;;4907279;29;20499;-59
2023/09/09 05:54:53;;;;;;;10.93;5.90;;;20.10;99.90;;;;;;4900957;29;20056;-59
2023/09/09 05:57:19;;;;;;;8.32;5.68;;;20.10;99.90;;;;;;4894442;29;20127;-59
2023/09/09 05:59:46;;;;;;;18.98;5.25;;;20.20;99.90;;;;;;4906622;29;20044;-58
2023/09/09 06:02:13;;;;;;;10.82;5.18;;;20.20;99.90;;;;;;4897532;29;20083;-57
2023/09/09 06:04:40;;;;;;;13.43;5.40;;;20.20;99.90;;;;;;4909671;29;20143;-59
2023/09/09 06:07:07;;;;;;;19.73;6.78;;;20.20;99.90;;;;;;4903419;29;20100;-57
2023/09/09 06:09:34;;;;;;;9.10;5.43;;;20.20;99.90;;;;;;4908392;29;20052;-58
2023/09/09 06:12:01;;;;;;;7.05;5.35;;;20.20;99.90;;;;;;4885921;29;20052;-59
2023/09/09 06:14:28;;;;;;;6.95;6.00;;;20.20;99.90;;;;;;4908281;29;20056;-59
2023/09/09 06:16:55;;;;;;;9.60;5.57;;;20.20;99.90;;;;;;4908180;29;20044;-59
2023/09/09 06:19:21;;;;;;;7.10;5.28;;;20.20;99.90;;;;;;4907957;29;20067;-58
2023/09/09 06:21:48;;;;;;;9.45;5.30;;;20.20;99.90;;;;;;4910308;29;20123;-59
2023/09/09 06:24:15;;;;;;;14.25;5.22;;;20.20;99.90;;;;;;4911634;29;20120;-59
2023/09/09 06:26:43;;;;;;;7.35;5.70;;;20.30;99.90;;;;;;4877975;29;20063;-59
2023/09/09 06:29:09;;;;;;;7.93;6.10;;;20.30;99.90;;;;;;4907297;29;20503;-59
2023/09/09 06:31:36;;;;;;;10.68;6.07;;;20.30;99.90;;;;;;4910844;29;20099;-59
2023/09/09 06:34:04;;;;;;;9.10;6.72;;;20.40;99.90;;;;;;4903726;29;20497;-58
2023/09/09 06:36:31;;;;;;;7.47;6.32;;;20.40;99.90;;;;;;4904965;29;20243;-58
2023/09/09 06:38:57;;;;;;;11.85;6.43;;;20.40;99.90;;;;;;4567181;29;10000318;-56
2023/09/09 06:41:24;;;;;;;8.98;6.22;;;20.50;99.90;;;;;;4908406;29;20044;-59
2023/09/09 06:43:51;;;;;;;9.52;6.03;;;20.50;99.90;;;;;;4897981;29;20376;-57
2023/09/09 06:46:18;;;;;;;10.07;6.93;;;20.60;99.90;;;;;;4902562;29;20048;-58
2023/09/09 06:48:45;;;;;;;8.60;6.22;;;20.70;99.90;;;;;;4905880;29;20506;-57
2023/09/09 06:51:12;;;;;;;7.35;6.22;;;20.70;99.90;;;;;;4903740;29;20053;-58
2023/09/09 06:53:39;;;;;;;12.35;6.75;;;20.70;99.90;;;;;;4902456;29;20608;-58
2023/09/09 06:56:07;;;;;;;11.52;6.78;;;20.80;99.90;;;;;;4899950;29;20041;-58
2023/09/09 06:58:34;;;;;;;12.05;6.70;;;20.90;99.90;;;;;;4899397;29;20052;-57
2023/09/09 07:01:02;;;;;;;12.48;6.93;;;21.00;99.90;;;;;;4892740;29;20052;-58
2023/09/09 07:03:29;;;;;;;10.98;7.05;;;21.00;99.90;;;;;;4905506;29;20079;-58
2023/09/09 07:05:59;;;;;;;10.98;6.93;;;21.10;99.90;;;;;;4897275;29;20049;-58
2023/09/09 07:08:26;;;;;;;11.82;7.43;;;21.10;99.90;;;;;;4900987;29;20060;-58
2023/09/09 07:10:53;;;;;;;12.32;7.10;;;21.20;99.90;;;;;;4900551;29;20167;-58
2023/09/09 07:13:23;;;;;;;10.43;6.75;;;21.30;99.90;;;;;;4884117;29;20435;-58
2023/09/09 07:15:53;;;;;;;7.43;6.22;;;21.40;99.90;;;;;;4903045;29;20095;-59
2023/09/09 07:18:21;;;;;;;12.95;7.60;;;21.50;99.90;;;;;;4904397;29;20048;-58
2023/09/09 07:20:48;;;;;;;12.50;7.28;;;21.50;99.90;;;;;;4903268;29;20048;-59
2023/09/09 07:23:16;;;;;;;9.60;6.53;;;21.60;99.90;;;;;;4903520;29;20051;-58
2023/09/09 07:25:43;;;;;;;9.52;6.40;;;21.60;99.90;;;;;;4903047;29;20100;-59
2023/09/09 07:28:11;;;;;;;13.00;6.68;;;21.70;99.90;;;;;;4911934;29;20063;-59
2023/09/09 07:30:38;;;;;;;10.77;6.47;;;21.80;99.90;;;;;;4909861;29;20044;-58
2023/09/09 07:33:05;;;;;;;15.32;6.47;;;21.90;99.90;;;;;;4912291;29;20052;-59
2023/09/09 07:35:33;;;;;;;7.85;6.25;;;22.00;99.90;;;;;;4901788;29;20076;-59
2023/09/09 07:38:00;;;;;;;12.25;7.40;;;22.10;99.90;;;;;;4911850;29;20052;-58
2023/09/09 07:40:27;;;;;;;12.20;7.20;;;22.20;99.90;;;;;;4904391;29;20044;-57
2023/09/09 07:42:54;;;;;;;9.27;6.75;;;22.30;99.90;;;;;;4916110;29;20087;-60
2023/09/09 07:45:21;;;;;;;8.75;5.85;;;22.30;99.90;;;;;;4909099;29;20060;-60
2023/09/09 07:47:47;;;;;;;9.32;6.20;;;22.40;99.90;;;;;;4910154;29;20135;-58
2023/09/09 07:50:14;;;;;;;12.15;6.47;;;22.50;99.90;;;;;;4905390;29;20059;-59
2023/09/09 07:52:41;;;;;;;12.25;6.43;;;22.50;99.90;;;;;;4902339;29;20469;-60
2023/09/09 07:55:08;;;;;;;8.70;5.40;;;22.60;99.90;;;;;;4899476;29;20128;-60
2023/09/09 07:57:35;;;;;;;10.18;5.40;;;22.70;99.90;;;;;;4908293;29;20104;-59
2023/09/09 08:00:03;;;;;;;7.30;5.15;;;22.80;99.90;;;;;;4894763;29;20485;-61
2023/09/09 08:02:31;;;;;;;11.25;6.32;;;22.80;99.90;;;;;;4907567;29;20052;-60
2023/09/09 08:04:57;;;;;;;10.60;5.68;;;22.90;99.90;;;;;;4894044;29;20111;-60
2023/09/09 08:07:24;;;;;;;9.82;5.57;;;23.00;99.90;;;;;;4911311;29;20095;-59
2023/09/09 08:09:51;;;;;;;13.00;5.75;;;23.10;99.90;;;;;;4910202;29;20115;-59
2023/09/09 08:12:18;;;;;;;13.52;5.32;;;23.20;99.90;;;;;;4905034;29;20139;-59
2023/09/09 08:14:45;;;;;;;9.32;5.30;;;23.30;99.90;;;;;;4909817;29;20079;-59
2023/09/09 08:17:11;;;;;;;15.48;6.93;;;23.30;99.90;;;;;;4907398;29;20099;-59
2023/09/09 08:19:38;;;;;;;15.38;7.07;;;23.40;99.90;;;;;;4911570;29;20052;-56
2023/09/09 08:22:05;;;;;;;14.90;5.82;;;23.50;99.90;;;;;;4907000;29;20057;-58
2023/09/09 08:24:32;;;;;;;14.40;4.88;;;23.60;99.90;;;;;;4553526;29;9999907;-55
2023/09/09 08:26:59;;;;;;;13.48;6.15;;;23.70;99.90;;;;;;4904476;29;20060;-58
2023/09/09 08:29:26;;;;;;;10.75;5.35;;;23.80;99.90;;;;;;4895818;29;20060;-57
2023/09/09 08:31:53;;;;;;;8.90;4.60;;;23.90;99.90;;;;;;4898357;29;20470;-56
2023/09/09 08:34:20;;;;;;;16.35;6.03;;;24.00;99.90;;;;;;4889685;29;20056;-57
2023/09/09 08:36:47;;;;;;;10.13;5.65;;;24.20;99.90;;;;;;4903521;29;20055;-57
2023/09/09 08:39:14;;;;;;;12.10;5.60;;;24.20;99.90;;;;;;4906382;29;20052;-58
2023/09/09 08:41:52;;;;;;;10.20;5.50;;;24.30;99.90;;;;;;4902658;29;20079;-56
2023/09/09 08:44:41;;;;;;;8.02;4.80;;;24.40;99.90;;;;;;4906140;29;20515;-57
2023/09/09 08:47:09;;;;;;;14.25;5.53;;;24.50;99.90;;;;;;4884641;29;20140;-57
2023/09/09 08:49:35;;;;;;;15.32;4.43;;;24.60;99.90;;;;;;4887746;29;20059;-56
2023/09/09 08:52:03;;;;;;;12.57;5.32;;;24.80;99.90;;;;;;4890922;29;20187;-52
2023/09/09 08:54:30;;;;;;;10.30;4.60;;;24.90;99.90;;;;;;4906905;29;20434;-54
2023/09/09 08:56:57;;;;;;;11.68;4.38;;;25.00;99.90;;;;;;4891801;29;20048;-56
2023/09/09 08:59:24;;;;;;;11.27;5.47;;;25.00;99.90;;;;;;4888280;29;20051;-57
2023/09/09 09:01:51;;;;;;;10.00;4.68;;;25.10;99.90;;;;;;4900685;29;20044;-56
2023/09/09 09:04:18;;;;;;;6.63;4.72;;;25.20;99.90;;;;;;4881694;29;20056;-54
2023/09/09 09:06:48;;;;;;;7.25;4.70;;;25.20;99.90;;;;;;4883588;29;20048;-57
2023/09/09 09:09:16;;;;;;;6.68;4.13;;;25.30;99.90;;;;;;4901260;29;20179;-52
2023/09/09 09:11:43;;;;;;;9.18;4.50;;;25.40;99.90;;;;;;4898657;29;20056;-57
2023/09/09 09:14:10;;;;;;;14.55;5.05;;;25.50;99.90;;;;;;4903280;29;20508;-55
2023/09/09 09:16:38;;;;;;;5.25;3.58;;;25.70;99.90;;;;;;4905869;29;20048;-57
2023/09/09 09:19:05;;;;;;;5.82;3.83;;;25.80;99.90;;;;;;4878420;29;20056;-54
2023/09/09 09:21:35;;;;;;;6.18;4.20;;;26.00;99.90;;;;;;4903939;29;20102;-56
2023/09/09 09:24:02;;;;;;;7.13;4.43;;;26.30;99.90;;;;;;4906375;29;20512;-57
2023/09/09 09:26:29;;;;;;;8.23;4.70;;;26.70;99.90;;;;;;4901594;29;20103;-57
2023/09/09 09:28:56;;;;;;;9.00;3.97;;;27.10;99.90;;;;;;4887307;29;20435;-57
2023/09/09 09:31:25;;;;;;;10.55;4.80;;;27.50;99.90;;;;;;4902286;29;20048;-57
2023/09/09 09:33:53;;;;;;;4.93;3.78;;;27.70;99.90;;;;;;4904762;29;20048;-54
2023/09/09 09:36:20;;;;;;;6.53;4.43;;;28.10;99.90;;;;;;4885642;29;20059;-58
2023/09/09 09:38:48;;;;;;;10.10;4.22;;;28.20;99.90;;;;;;4901623;29;20044;-58
2023/09/09 09:41:16;;;;;;;4.70;3.97;;;28.30;99.90;;;;;;4892849;29;20432;-58
2023/09/09 09:43:45;;;;;;;13.52;4.57;;;28.30;99.90;;;;;;4881841;29;20116;-59
2023/09/09 09:46:16;;;;;;;8.15;4.53;;;28.50;99.90;;;;;;4885059;29;20067;-57
2023/09/09 09:48:43;;;;;;;4.65;3.50;;;28.60;99.90;;;;;;4898871;29;20147;-59
2023/09/09 09:51:10;;;;;;;6.30;3.60;;;28.80;99.90;;;;;;4902645;29;20427;-58
2023/09/09 09:53:56;;;;;;;5.95;3.85;;;29.00;99.90;;;;;;4899742;29;20048;-59
2023/09/09 09:56:22;;;;;;;5.78;3.55;;;29.30;99.90;;;;;;4864619;29;20048;-58
2023/09/09 09:58:50;;;;;;;4.43;3.78;;;29.00;99.90;;;;;;4896445;29;20073;-58
2023/09/09 10:01:17;;;;;;;10.00;4.70;;;28.90;99.90;;;;;;4895418;29;20085;-58
2023/09/09 10:03:55;;;;;;;7.60;4.38;;;28.80;99.90;;;;;;4897270;29;20546;-59
2023/09/09 10:06:26;;;;;;;6.50;4.38;;;28.70;99.90;;;;;;4902750;29;20104;-57
2023/09/09 10:09:09;;;;;;;9.60;5.18;;;28.50;99.90;;;;;;4895882;29;20052;-58
2023/09/09 10:11:45;;;;;;;7.25;3.95;;;28.30;99.90;;;;;;4902952;29;20449;-58
2023/09/09 10:14:15;;;;;;;9.23;3.40;;;28.20;99.90;;;;;;4893471;29;20485;-59
2023/09/09 10:16:42;;;;;;;7.20;4.45;;;28.30;99.90;;;;;;4886326;29;20099;-58
2023/09/09 10:19:12;;;;;;;6.43;4.18;;;28.30;99.90;;;;;;4877241;29;20052;-57
2023/09/09 10:21:41;;;;;;;7.38;4.28;;;28.20;99.90;;;;;;4887263;29;20048;-55
2023/09/09 10:24:08;;;;;;;9.60;4.30;;;28.30;99.90;;;;;;4886524;29;20139;-57
2023/09/09 10:26:36;;;;;;;7.20;3.75;;;28.20;99.90;;;;;;4887739;29;20104;-57
2023/09/09 10:29:03;;;;;;;9.75;4.50;;;28.20;99.90;;;;;;4867225;29;20048;-56
2023/09/09 10:31:29;;;;;;;13.02;4.20;;;28.20;99.90;;;;;;4889700;29;20329;-54
2023/09/09 10:33:56;;;;;;;15.43;5.38;;;28.20;99.90;;;;;;4897843;29;20103;-56
2023/09/09 10:36:24;;;;;;;8.27;4.70;;;28.20;99.90;;;;;;4871673;29;20063;-56
2023/09/09 10:38:55;;;;;;;12.23;4.80;;;28.30;99.90;;;;;;4888644;29;20048;-55
2023/09/09 10:41:22;;;;;;;13.48;4.25;;;28.30;99.90;;;;;;4902584;29;20162;-56
2023/09/09 10:43:48;;;;;;;17.83;4.32;;;28.30;99.90;;;;;;4891027;29;20131;-53
2023/09/09 10:46:15;;;;;;;10.55;4.18;;;28.30;99.90;;;;;;4900302;29;20052;-56
2023/09/09 10:48:43;;;;;;;13.20;5.38;;;28.40;99.90;;;;;;4904161;29;20058;-54
2023/09/09 10:51:13;;;;;;;10.18;4.45;;;28.40;99.90;;;;;;4903522;29;20055;-54
2023/09/09 10:53:39;;;;;;;15.60;4.50;;;28.40;99.90;;;;;;4888509;29;20100;-51
2023/09/09 10:56:12;;;;;;;18.88;4.97;;;28.40;99.90;;;;;;4901160;29;20120;-55
2023/09/09 10:58:39;;;;;;;10.95;4.53;;;28.40;99.90;;;;;;4902266;29;20345;-56
2023/09/09 11:01:07;;;;;;;12.32;4.40;;;28.50;99.90;;;;;;4884002;29;20056;-53
2023/09/09 11:03:40;;;;;;;12.20;4.53;;;28.50;99.90;;;;;;4894063;29;20052;-55
2023/09/09 11:06:10;;;;;;;15.27;4.80;;;28.50;99.90;;;;;;4901229;29;20052;-56
2023/09/09 11:08:46;;;;;;;12.05;4.63;;;28.60;99.90;;;;;;4901861;29;20177;-57
2023/09/09 11:11:17;;;;;;;14.27;4.25;;;28.60;99.90;;;;;;4883309;29;20063;-57
2023/09/09 11:13:51;;;;;;;10.15;4.00;;;28.60;99.90;;;;;;4892795;29;20079;-55
2023/09/09 11:16:24;;;;;;;7.60;3.65;;;28.60;99.90;;;;;;4899269;29;20044;-57
2023/09/09 11:18:52;;;;;;;7.63;3.75;;;28.60;99.90;;;;;;4905460;29;20056;-57
2023/09/09 11:21:22;;;;;;;6.47;3.08;;;28.70;99.90;;;;;;4901943;29;20041;-57
2023/09/09 11:23:52;;;;;;;8.82;4.22;;;28.60;99.90;;;;;;4909922;29;20520;-57
2023/09/09 11:26:20;;;;;;;11.75;4.20;;;28.60;99.90;;;;;;4908263;29;20107;-55
2023/09/09 11:28:47;;;;;;;18.17;3.80;;;28.70;99.90;;;;;;4904308;29;20044;-56
2023/09/09 11:31:15;;;;;;;10.07;3.72;;;28.80;99.90;;;;;;4900560;29;20052;-57
2023/09/09 11:33:43;;;;;;;8.40;3.88;;;29.00;99.40;;;;;;4908375;29;20143;-57
2023/09/09 11:36:09;;;;;;;15.45;4.72;;;29.00;99.70;;;;;;4906783;29;20052;-57
2023/09/09 11:38:39;;;;;;;8.10;4.45;;;29.10;99.90;;;;;;4903809;29;20058;-58
2023/09/09 11:41:07;;;;;;;6.78;4.13;;;29.10;99.90;;;;;;4903942;29;20060;-57
2023/09/09 11:43:34;;;;;;;13.05;4.72;;;29.20;99.90;;;;;;4894154;29;20416;-57
2023/09/09 11:46:01;;;;;;;11.02;4.47;;;29.30;99.90;;;;;;4908755;29;20492;-56
2023/09/09 11:48:28;;;;;;;12.85;4.35;;;29.40;99.90;;;;;;4887118;29;20449;-53
2023/09/09 11:50:55;;;;;;;6.38;4.63;;;29.40;99.90;;;;;;4883139;29;20138;-57
2023/09/09 11:53:22;;;;;;;9.10;4.20;;;29.50;99.90;;;;;;4900084;29;20086;-60
2023/09/09 11:55:52;;;;;;;12.45;4.82;;;29.50;99.90;;;;;;4895874;29;20048;-57
2023/09/09 11:58:19;;;;;;;10.23;5.40;;;29.50;99.70;;;;;;4898147;29;20052;-56
2023/09/09 12:00:46;;;;;;;16.23;4.65;;;29.50;99.70;;;;;;4906226;29;20055;-55
2023/09/09 12:03:20;;;;;;;9.00;4.53;;;29.60;99.60;;;;;;4906249;29;20122;-55
2023/09/09 12:05:50;;;;;;;14.32;6.15;;;29.60;99.10;;;;;;4901061;29;20044;-58
2023/09/09 12:08:17;;;;;;;10.73;4.63;;;29.70;99.30;;;;;;4893770;29;20059;-57
2023/09/09 12:10:44;;;;;;;12.57;3.72;;;29.80;99.20;;;;;;4906939;29;20411;-58
2023/09/09 12:13:11;;;;;;;6.65;3.83;;;29.90;99.00;;;;;;4896679;29;20092;-54
2023/09/09 12:15:38;;;;;;;8.55;3.92;;;29.90;99.00;;;;;;4549892;29;10000120;-56
2023/09/09 12:18:12;;;;;;;12.48;4.22;;;29.90;98.70;;;;;;4876473;29;20132;-57
2023/09/09 12:21:08;;;;;;;10.02;4.22;;;29.90;98.50;;;;;;4907822;29;20059;-54
2023/09/09 12:23:40;;;;;;;10.00;4.35;;;30.00;97.30;;;;;;4909528;29;20150;-54
2023/09/09 12:26:14;;;;;;;11.73;3.80;;;30.00;98.20;;;;;;4884404;29;20053;-56
2023/09/09 12:28:42;;;;;;;6.30;3.30;;;30.10;97.90;;;;;;4889428;29;20064;-57
2023/09/09 12:31:10;;;;;;;14.95;4.55;;;30.20;98.00;;;;;;4898134;29;20052;-56
2023/09/09 12:33:44;;;;;;;8.98;3.88;;;30.20;98.10;;;;;;4891948;29;20044;-56
2023/09/09 12:36:16;;;;;;;11.77;4.00;;;30.20;97.30;;;;;;4900887;29;21009;-57
2023/09/09 12:38:45;;;;;;;11.25;3.90;;;30.30;97.30;;;;;;4907372;29;20107;-57
2023/09/09 12:41:17;;;;;;;6.57;4.25;;;30.30;97.40;;;;;;4890548;29;20646;-56
2023/09/09 12:43:44;;;;;;;8.02;3.85;;;30.30;96.70;;;;;;4897464;29;20045;-57
2023/09/09 12:46:13;;;;;;;7.78;3.55;;;30.20;97.40;;;;;;4876989;29;20480;-57